createdAt,value
2023-05-01T00:01:46.865Z,11.07
2023-05-01T00:04:13.744Z,11.11
2023-05-01T00:06:40.611Z,11.12
2023-05-01T00:09:07.320Z,11.11
2023-05-01T00:11:37.247Z,11.07
2023-05-01T00:14:04.000Z,11.03
2023-05-01T00:16:31.320Z,10.88
2023-05-01T00:18:58.108Z,10.93
2023-05-01T00:21:24.741Z,10.98
2023-05-01T00:23:51.855Z,10.97
2023-05-01T00:26:18.530Z,10.85
2023-05-01T00:28:45.265Z,10.91
2023-05-01T00:31:12.017Z,11.02
2023-05-01T00:33:38.620Z,11.01
2023-05-01T00:36:05.418Z,11.01
2023-05-01T00:38:32.043Z,11.00
2023-05-01T00:40:58.761Z,10.97
2023-05-01T00:43:25.457Z,10.93
2023-05-01T00:45:52.187Z,10.84
2023-05-01T00:48:18.907Z,10.94
2023-05-01T00:50:46.159Z,10.87
2023-05-01T00:53:13.239Z,10.67
2023-05-01T00:55:42.128Z,10.93
2023-05-01T00:58:10.152Z,10.95
2023-05-01T01:00:37.052Z,10.98
2023-05-01T01:03:04.848Z,11.02
2023-05-01T01:05:35.668Z,11.00
2023-05-01T01:08:26.761Z,11.01
2023-05-01T01:11:01.480Z,10.89
2023-05-01T01:13:36.764Z,10.87
2023-05-01T01:16:21.702Z,10.87
2023-05-01T01:19:19.325Z,10.89
2023-05-01T01:21:54.522Z,10.84
2023-05-01T01:24:53.531Z,10.77
2023-05-01T01:27:44.128Z,10.79
2023-05-01T01:30:16.954Z,10.75
2023-05-01T01:33:11.298Z,10.60
2023-05-01T01:35:41.342Z,10.60
2023-05-01T01:38:23.723Z,10.62
2023-05-01T01:41:11.987Z,10.54
2023-05-01T01:43:43.893Z,10.27
2023-05-01T01:46:11.402Z,10.35
2023-05-01T01:48:43.399Z,10.37
2023-05-01T01:51:16.495Z,10.44
2023-05-01T01:53:49.931Z,10.56
2023-05-01T01:56:18.984Z,10.51
2023-05-01T01:58:47.405Z,10.51
2023-05-01T02:01:16.906Z,10.45
2023-05-01T02:03:46.256Z,10.42
2023-05-01T02:06:14.535Z,10.30
2023-05-01T02:08:44.074Z,10.33
2023-05-01T02:11:14.286Z,10.48
2023-05-01T02:13:42.547Z,10.55
2023-05-01T02:16:10.280Z,10.64
2023-05-01T02:18:38.357Z,10.55
2023-05-01T02:21:05.474Z,10.50
2023-05-01T02:23:33.607Z,10.40
2023-05-01T02:26:05.623Z,10.46
2023-05-01T02:28:34.478Z,10.52
2023-05-01T02:31:01.364Z,10.58
2023-05-01T02:33:28.375Z,10.57
2023-05-01T02:35:54.966Z,10.58
2023-05-01T02:38:21.702Z,10.58
2023-05-01T02:40:53.404Z,10.56
2023-05-01T02:43:22.162Z,10.57
2023-05-01T02:45:50.283Z,10.23
2023-05-01T02:48:21.883Z,9.50
2023-05-01T02:50:49.733Z,9.71
2023-05-01T02:53:17.932Z,9.59
2023-05-01T02:55:44.820Z,9.71
2023-05-01T02:58:19.033Z,9.84
2023-05-01T03:00:46.057Z,10.03
2023-05-01T03:03:12.920Z,10.12
2023-05-01T03:05:41.714Z,10.06
2023-05-01T03:08:08.515Z,10.10
2023-05-01T03:10:35.302Z,10.02
2023-05-01T03:13:01.912Z,10.04
2023-05-01T03:15:28.580Z,9.99
2023-05-01T03:17:55.361Z,9.61
2023-05-01T03:20:22.070Z,9.80
2023-05-01T03:22:48.659Z,9.78
2023-05-01T03:25:15.497Z,9.89
2023-05-01T03:27:42.472Z,9.71
2023-05-01T03:30:10.180Z,9.55
2023-05-01T03:32:37.191Z,9.64
2023-05-01T03:35:04.276Z,9.76
2023-05-01T03:37:31.077Z,9.82
2023-05-01T03:39:58.018Z,9.74
2023-05-01T03:42:24.817Z,9.76
2023-05-01T03:44:51.481Z,9.80
2023-05-01T03:47:19.355Z,9.77
2023-05-01T03:49:45.982Z,9.68
2023-05-01T03:52:13.129Z,9.73
2023-05-01T03:54:39.966Z,9.68
2023-05-01T03:57:07.191Z,9.57
2023-05-01T03:59:33.807Z,9.46
2023-05-01T04:02:00.468Z,9.55
2023-05-01T04:04:27.187Z,9.55
2023-05-01T04:06:53.960Z,9.56
2023-05-01T04:09:20.945Z,9.56
2023-05-01T04:11:47.724Z,9.60
2023-05-01T04:14:14.460Z,9.55
2023-05-01T04:16:41.386Z,9.42
2023-05-01T04:19:09.281Z,9.29
2023-05-01T04:21:36.000Z,9.08
2023-05-01T04:24:02.754Z,9.10
2023-05-01T04:26:29.332Z,9.12
2023-05-01T04:28:56.172Z,9.11
2023-05-01T04:31:22.888Z,9.04
2023-05-01T04:33:49.513Z,9.18
2023-05-01T04:36:16.111Z,9.30
2023-05-01T04:38:43.106Z,9.34
2023-05-01T04:41:09.984Z,9.36
2023-05-01T04:43:36.592Z,9.39
2023-05-01T04:46:04.579Z,9.46
2023-05-01T04:48:31.314Z,9.44
2023-05-01T04:50:58.396Z,9.53
2023-05-01T04:53:25.145Z,9.57
2023-05-01T04:55:51.787Z,9.62
2023-05-01T04:58:18.399Z,9.68
2023-05-01T05:00:44.989Z,9.65
2023-05-01T05:03:11.735Z,9.64
2023-05-01T05:05:38.582Z,9.67
2023-05-01T05:08:06.313Z,9.67
2023-05-01T05:10:32.994Z,9.77
2023-05-01T05:12:59.673Z,9.83
2023-05-01T05:15:26.344Z,9.90
2023-05-01T05:17:55.105Z,9.89
2023-05-01T05:20:23.051Z,9.99
2023-05-01T05:22:49.706Z,9.55
2023-05-01T05:25:16.465Z,9.11
2023-05-01T05:27:44.255Z,9.51
2023-05-01T05:30:11.356Z,9.62
2023-05-01T05:32:38.073Z,9.33
2023-05-01T05:35:05.565Z,9.47
2023-05-01T05:37:32.325Z,9.60
2023-05-01T05:39:58.951Z,9.71
2023-05-01T05:42:25.577Z,9.82
2023-05-01T05:44:53.038Z,9.91
2023-05-01T05:47:19.737Z,9.93
2023-05-01T05:49:46.430Z,10.05
2023-05-01T05:52:13.134Z,10.08
2023-05-01T05:54:40.006Z,10.14
2023-05-01T05:57:06.622Z,10.25
2023-05-01T05:59:33.235Z,10.26
2023-05-01T06:02:00.447Z,9.85
2023-05-01T06:04:27.216Z,9.55
2023-05-01T06:06:54.620Z,9.77
2023-05-01T06:09:21.488Z,9.83
2023-05-01T06:11:48.324Z,9.77
2023-05-01T06:14:16.590Z,9.54
2023-05-01T06:16:43.317Z,9.00
2023-05-01T06:19:12.236Z,9.03
2023-05-01T06:21:38.854Z,9.30
2023-05-01T06:24:06.219Z,9.49
2023-05-01T06:26:32.986Z,9.71
2023-05-01T06:28:59.602Z,9.91
2023-05-01T06:31:27.148Z,10.20
2023-05-01T06:33:53.990Z,10.28
2023-05-01T06:36:20.666Z,10.10
2023-05-01T06:38:49.242Z,10.03
2023-05-01T06:41:16.346Z,10.15
2023-05-01T06:43:43.030Z,9.78
2023-05-01T06:46:09.927Z,9.54
2023-05-01T06:48:36.814Z,9.96
2023-05-01T06:51:03.627Z,10.12
2023-05-01T06:53:30.294Z,10.24
2023-05-01T06:55:56.994Z,10.71
2023-05-01T06:58:24.618Z,10.51
2023-05-01T07:00:53.102Z,11.00
2023-05-01T07:03:19.918Z,11.05
2023-05-01T07:05:46.641Z,11.35
2023-05-01T07:08:14.444Z,11.30
2023-05-01T07:10:42.305Z,11.14
2023-05-01T07:13:09.681Z,11.72
2023-05-01T07:15:37.142Z,12.61
2023-05-01T07:18:06.084Z,12.55
2023-05-01T07:20:33.332Z,12.73
2023-05-01T07:23:00.333Z,13.65
2023-05-01T07:25:27.074Z,14.24
2023-05-01T07:27:54.871Z,13.82
2023-05-01T07:30:21.649Z,12.56
2023-05-01T07:32:48.427Z,12.47
2023-05-01T07:35:15.382Z,12.85
2023-05-01T07:37:42.079Z,13.76
2023-05-01T07:40:09.042Z,14.71
2023-05-01T07:42:36.264Z,13.22
2023-05-01T07:45:03.394Z,13.57
2023-05-01T07:47:30.175Z,14.50
2023-05-01T07:49:57.460Z,14.54
2023-05-01T07:52:24.321Z,14.16
2023-05-01T07:54:51.309Z,14.22
2023-05-01T07:57:18.493Z,12.30
2023-05-01T07:59:45.312Z,13.04
2023-05-01T08:02:13.755Z,11.97
2023-05-01T08:04:41.690Z,11.80
2023-05-01T08:07:08.736Z,12.46
2023-05-01T08:09:35.350Z,13.25
2023-05-01T08:12:03.775Z,13.48
2023-05-01T08:14:30.855Z,13.57
2023-05-01T08:16:57.707Z,13.30
2023-05-01T08:19:24.668Z,12.63
2023-05-01T08:21:51.409Z,12.17
2023-05-01T08:24:18.091Z,12.23
2023-05-01T08:26:44.955Z,11.91
2023-05-01T08:29:11.735Z,11.78
2023-05-01T08:31:39.373Z,11.52
2023-05-01T08:34:06.345Z,11.13
2023-05-01T08:36:33.095Z,11.35
2023-05-01T08:38:59.724Z,10.97
2023-05-01T08:41:28.640Z,11.02
2023-05-01T08:43:58.573Z,10.51
2023-05-01T08:46:49.070Z,10.52
2023-05-01T08:49:17.076Z,10.96
2023-05-01T08:51:50.011Z,11.26
2023-05-01T08:54:19.705Z,11.17
2023-05-01T08:56:52.494Z,11.03
2023-05-01T08:59:20.550Z,11.34
2023-05-01T09:01:47.817Z,10.90
2023-05-01T09:04:16.401Z,11.51
2023-05-01T09:06:44.999Z,11.65
2023-05-01T09:09:11.900Z,11.89
2023-05-01T09:11:39.313Z,11.86
2023-05-01T09:14:06.193Z,12.10
2023-05-01T09:16:33.126Z,12.17
2023-05-01T09:19:00.085Z,12.13
2023-05-01T09:21:32.044Z,11.41
2023-05-01T09:23:58.910Z,11.55
2023-05-01T09:26:26.885Z,11.62
2023-05-01T09:28:57.958Z,11.57
2023-05-01T09:31:29.349Z,11.89
2023-05-01T09:33:58.007Z,11.99
2023-05-01T09:36:30.971Z,11.98
2023-05-01T09:38:58.381Z,12.16
2023-05-01T09:41:25.044Z,12.34
2023-05-01T09:43:56.683Z,12.46
2023-05-01T09:46:25.221Z,12.55
2023-05-01T09:48:53.545Z,12.32
2023-05-01T09:51:22.381Z,12.57
2023-05-01T09:53:49.514Z,12.73
2023-05-01T09:56:16.229Z,12.68
2023-05-01T09:58:43.006Z,12.73
2023-05-01T10:01:10.293Z,12.80
2023-05-01T10:03:37.750Z,12.61
2023-05-01T10:06:04.966Z,12.48
2023-05-01T10:08:49.009Z,12.19
2023-05-01T10:11:15.963Z,12.55
2023-05-01T10:13:42.810Z,11.98
2023-05-01T10:16:29.156Z,11.96
2023-05-01T10:19:01.069Z,11.96
2023-05-01T10:21:28.911Z,12.30
2023-05-01T10:23:55.855Z,12.19
2023-05-01T10:26:22.557Z,12.44
2023-05-01T10:28:49.717Z,12.84
2023-05-01T10:31:17.055Z,12.93
2023-05-01T10:33:45.325Z,12.84
2023-05-01T10:36:18.708Z,12.82
2023-05-01T10:38:48.441Z,12.64
2023-05-01T10:41:18.947Z,12.61
2023-05-01T10:43:45.863Z,12.89
2023-05-01T10:46:21.545Z,13.51
2023-05-01T10:48:51.303Z,13.58
2023-05-01T10:51:25.089Z,13.49
2023-05-01T10:54:24.535Z,13.59
2023-05-01T10:56:51.442Z,13.97
2023-05-01T10:59:18.310Z,13.76
2023-05-01T11:01:47.988Z,13.56
2023-05-01T11:04:24.754Z,14.28
2023-05-01T11:06:57.668Z,14.19
2023-05-01T11:09:42.714Z,15.14
2023-05-01T11:12:11.445Z,15.12
2023-05-01T11:15:05.854Z,15.81
2023-05-01T11:17:42.014Z,15.94
2023-05-01T11:20:11.086Z,15.25
2023-05-01T11:22:42.729Z,15.08
2023-05-01T11:25:30.958Z,14.57
2023-05-01T11:27:59.785Z,14.86
2023-05-01T11:30:26.796Z,14.50
2023-05-01T11:32:53.526Z,14.05
2023-05-01T11:35:20.212Z,13.98
2023-05-01T11:37:47.783Z,13.88
2023-05-01T11:40:24.874Z,13.57
2023-05-01T11:43:00.410Z,13.76
2023-05-01T11:45:27.396Z,14.38
2023-05-01T11:47:54.475Z,14.46
2023-05-01T11:50:24.284Z,15.03
2023-05-01T11:52:55.011Z,15.08
2023-05-01T11:55:30.571Z,14.93
2023-05-01T11:57:57.535Z,14.88
2023-05-01T12:00:36.974Z,14.88
2023-05-01T12:03:14.548Z,13.81
2023-05-01T12:05:43.828Z,14.64
2023-05-01T12:08:19.210Z,14.83
2023-05-01T12:10:49.416Z,15.17
2023-05-01T12:13:17.089Z,14.97
2023-05-01T12:15:46.179Z,14.27
2023-05-01T12:18:14.529Z,14.55
2023-05-01T12:20:43.515Z,15.35
2023-05-01T12:23:16.076Z,15.62
2023-05-01T12:25:44.809Z,16.06
2023-05-01T12:28:14.538Z,15.87
2023-05-01T12:30:42.430Z,15.80
2023-05-01T12:33:14.155Z,15.35
2023-05-01T12:35:41.937Z,15.16
2023-05-01T12:38:16.679Z,15.15
2023-05-01T12:40:57.662Z,15.23
2023-05-01T12:43:32.138Z,14.89
2023-05-01T12:45:59.185Z,15.31
2023-05-01T12:48:26.714Z,15.57
2023-05-01T12:50:57.121Z,15.43
2023-05-01T12:53:28.487Z,15.40
2023-05-01T12:55:58.802Z,16.27
2023-05-01T12:58:38.443Z,16.64
2023-05-01T13:01:06.480Z,17.00
2023-05-01T13:03:36.986Z,17.04
2023-05-01T13:06:06.080Z,17.54
2023-05-01T13:08:38.393Z,17.16
2023-05-01T13:11:13.508Z,17.24
2023-05-01T13:13:40.856Z,16.88
2023-05-01T13:16:12.844Z,16.78
2023-05-01T13:18:43.929Z,16.77
2023-05-01T13:21:13.014Z,16.43
2023-05-01T13:23:40.083Z,16.57
2023-05-01T13:26:08.584Z,16.24
2023-05-01T13:28:47.709Z,15.66
2023-05-01T13:31:14.992Z,15.26
2023-05-01T13:33:43.474Z,15.09
2023-05-01T13:36:25.399Z,15.23
2023-05-01T13:38:56.099Z,15.33
2023-05-01T13:41:25.785Z,15.58
2023-05-01T13:43:54.949Z,14.95
2023-05-01T13:46:23.956Z,14.70
2023-05-01T13:48:50.923Z,14.40
2023-05-01T13:51:23.354Z,12.72
2023-05-01T13:53:50.599Z,12.78
2023-05-01T13:56:17.417Z,12.79
2023-05-01T13:58:44.800Z,12.96
2023-05-01T14:01:16.723Z,13.11
2023-05-01T14:03:43.672Z,13.38
2023-05-01T14:06:15.588Z,13.59
2023-05-01T14:08:43.230Z,14.29
2023-05-01T14:11:11.637Z,14.92
2023-05-01T14:13:46.311Z,15.01
2023-05-01T14:16:27.802Z,15.35
2023-05-01T14:18:56.890Z,15.41
2023-05-01T14:21:28.066Z,14.96
2023-05-01T14:23:56.739Z,14.61
2023-05-01T14:26:24.151Z,15.03
2023-05-01T14:28:50.932Z,15.40
2023-05-01T14:31:26.015Z,15.90
2023-05-01T14:33:58.597Z,16.37
2023-05-01T14:36:26.846Z,16.13
2023-05-01T14:38:56.478Z,15.87
2023-05-01T14:41:23.157Z,15.56
2023-05-01T14:43:53.212Z,14.92
2023-05-01T14:46:35.259Z,14.88
2023-05-01T14:49:02.970Z,15.04
2023-05-01T14:51:32.045Z,14.81
2023-05-01T14:53:59.480Z,14.78
2023-05-01T14:56:26.121Z,14.14
2023-05-01T14:58:52.790Z,13.57
2023-05-01T15:01:19.864Z,13.17
2023-05-01T15:03:46.845Z,13.46
2023-05-01T15:06:13.842Z,13.39
2023-05-01T15:08:40.503Z,13.61
2023-05-01T15:11:07.676Z,13.47
2023-05-01T15:13:34.429Z,14.03
2023-05-01T15:16:01.299Z,13.47
2023-05-01T15:18:28.012Z,12.68
2023-05-01T15:20:55.563Z,13.03
2023-05-01T15:23:22.744Z,12.92
2023-05-01T15:25:50.674Z,13.30
2023-05-01T15:28:17.555Z,13.31
2023-05-01T15:30:45.901Z,13.02
2023-05-01T15:33:15.382Z,12.42
2023-05-01T15:35:45.475Z,12.54
2023-05-01T15:38:12.419Z,11.94
2023-05-01T15:40:39.147Z,11.91
2023-05-01T15:43:06.503Z,12.58
2023-05-01T15:45:33.527Z,12.95
2023-05-01T15:48:01.137Z,13.14
2023-05-01T15:50:28.273Z,13.82
2023-05-01T15:52:54.878Z,13.21
2023-05-01T15:55:22.057Z,12.63
2023-05-01T15:57:48.902Z,12.48
2023-05-01T16:00:16.909Z,12.10
2023-05-01T16:02:44.522Z,12.01
2023-05-01T16:05:14.176Z,12.85
2023-05-01T16:07:41.058Z,12.13
2023-05-01T16:10:08.691Z,12.87
2023-05-01T16:12:35.474Z,12.81
2023-05-01T16:15:03.904Z,12.54
2023-05-01T16:17:43.461Z,12.24
2023-05-01T16:20:13.104Z,12.62
2023-05-01T16:22:41.287Z,12.71
2023-05-01T16:25:09.587Z,12.75
2023-05-01T16:27:41.150Z,12.69
2023-05-01T16:30:09.288Z,12.86
2023-05-01T16:32:36.390Z,12.95
2023-05-01T16:35:05.436Z,13.45
2023-05-01T16:37:33.932Z,13.27
2023-05-01T16:40:01.340Z,13.31
2023-05-01T16:42:28.477Z,13.06
2023-05-01T16:44:56.562Z,13.26
2023-05-01T16:47:23.406Z,13.60
2023-05-01T16:49:51.215Z,13.74
2023-05-01T16:52:18.010Z,13.92
2023-05-01T16:54:44.674Z,13.87
2023-05-01T16:59:38.223Z,13.83
2023-05-01T17:02:05.870Z,13.77
2023-05-01T17:04:33.529Z,13.99
2023-05-01T17:07:00.432Z,13.95
2023-05-01T17:09:27.217Z,14.06
2023-05-01T17:11:56.462Z,14.02
2023-05-01T17:14:23.628Z,14.10
2023-05-01T17:16:50.641Z,14.02
2023-05-01T17:19:17.571Z,13.95
2023-05-01T17:21:44.330Z,13.90
2023-05-01T17:24:12.929Z,13.65
2023-05-01T17:26:39.778Z,13.41
2023-05-01T17:29:06.440Z,13.38
2023-05-01T17:31:33.450Z,13.17
2023-05-01T17:34:00.672Z,13.28
2023-05-01T17:36:27.338Z,13.31
2023-05-01T17:38:54.662Z,13.02
2023-05-01T17:41:22.433Z,12.95
2023-05-01T17:43:49.426Z,13.11
2023-05-01T17:46:17.006Z,13.11
2023-05-01T17:48:44.263Z,13.18
2023-05-01T17:51:13.919Z,12.68
2023-05-01T17:53:41.542Z,12.48
2023-05-01T17:56:08.986Z,12.59
2023-05-01T17:58:35.849Z,12.61
2023-05-01T18:01:04.728Z,12.52
2023-05-01T18:03:32.812Z,12.53
2023-05-01T18:06:01.492Z,12.53
2023-05-01T18:08:28.239Z,12.48
2023-05-01T18:10:54.995Z,12.49
2023-05-01T18:13:27.756Z,12.58
2023-05-01T18:15:55.830Z,12.50
2023-05-01T18:18:23.374Z,12.51
2023-05-01T18:20:50.372Z,12.47
2023-05-01T18:23:19.966Z,12.26
2023-05-01T18:25:46.649Z,12.25
2023-05-01T18:28:16.238Z,11.95
2023-05-01T18:30:43.107Z,12.06
2023-05-01T18:33:10.194Z,12.10
2023-05-01T18:35:39.552Z,11.94
2023-05-01T18:38:06.254Z,11.84
2023-05-01T18:40:33.177Z,11.85
2023-05-01T18:42:59.913Z,11.72
2023-05-01T18:45:26.548Z,11.64
2023-05-01T18:47:53.401Z,11.63
2023-05-01T18:50:21.907Z,11.64
2023-05-01T18:52:48.988Z,11.62
2023-05-01T18:55:18.773Z,11.57
2023-05-01T18:57:46.677Z,11.48
2023-05-01T19:00:15.383Z,11.36
2023-05-01T19:02:42.281Z,11.32
2023-05-01T19:05:09.721Z,11.29
2023-05-01T19:07:36.664Z,11.23
2023-05-01T19:10:03.801Z,11.24
2023-05-01T19:12:30.786Z,11.23
2023-05-01T19:14:57.442Z,11.19
2023-05-01T19:17:24.285Z,11.16
2023-05-01T19:19:53.137Z,11.13
2023-05-01T19:22:19.795Z,10.65
2023-05-01T19:24:46.567Z,10.49
2023-05-01T19:27:13.323Z,10.59
2023-05-01T19:29:40.331Z,10.57
2023-05-01T19:32:07.595Z,10.63
2023-05-01T19:34:34.357Z,10.60
2023-05-01T19:37:02.092Z,10.46
2023-05-01T19:39:29.398Z,10.50
2023-05-01T19:41:56.351Z,10.45
2023-05-01T19:44:23.071Z,10.49
2023-05-01T19:46:49.731Z,10.56
2023-05-01T19:49:16.587Z,10.53
2023-05-01T19:51:43.277Z,10.65
2023-05-01T19:54:09.893Z,10.55
2023-05-01T19:56:38.441Z,10.43
2023-05-01T19:59:05.234Z,10.42
2023-05-01T20:01:32.003Z,10.26
2023-05-01T20:03:58.778Z,10.23
2023-05-01T20:06:26.386Z,10.04
2023-05-01T20:08:53.134Z,10.05
2023-05-01T20:11:19.769Z,9.95
2023-05-01T20:13:46.501Z,10.03
2023-05-01T20:16:13.168Z,9.99
2023-05-01T20:18:39.924Z,9.64
2023-05-01T20:21:07.599Z,9.52
2023-05-01T20:23:34.846Z,9.45
2023-05-01T20:26:01.681Z,9.31
2023-05-01T20:28:28.550Z,9.25
2023-05-01T20:30:55.573Z,9.09
2023-05-01T20:33:25.845Z,9.24
2023-05-01T20:35:53.056Z,9.33
2023-05-01T20:38:19.990Z,9.39
2023-05-01T20:40:46.654Z,9.45
2023-05-01T20:43:13.288Z,9.38
2023-05-01T20:45:40.120Z,9.51
2023-05-01T20:48:07.409Z,9.53
2023-05-01T20:50:35.403Z,9.62
2023-05-01T20:53:02.090Z,9.62
2023-05-01T20:55:29.812Z,9.00
2023-05-01T20:57:56.564Z,8.77
2023-05-01T21:00:23.292Z,8.87
2023-05-01T21:02:51.771Z,8.96
2023-05-01T21:05:18.648Z,9.11
2023-05-01T21:07:45.309Z,9.22
2023-05-01T21:10:14.444Z,9.13
2023-05-01T21:12:41.267Z,9.16
2023-05-01T21:15:08.921Z,9.16
2023-05-01T21:17:36.976Z,9.12
2023-05-01T21:20:12.923Z,9.19
2023-05-01T21:22:41.619Z,9.22
2023-05-01T21:25:08.966Z,9.30
2023-05-01T21:27:42.362Z,9.22
2023-05-01T21:30:14.848Z,9.14
2023-05-01T21:32:42.259Z,9.03
2023-05-01T21:35:10.120Z,8.95
2023-05-01T21:37:37.312Z,8.77
2023-05-01T21:40:12.405Z,8.78
2023-05-01T21:42:39.821Z,8.75
2023-05-01T21:45:12.959Z,8.61
2023-05-01T21:47:45.489Z,8.67
2023-05-01T21:50:14.272Z,8.67
2023-05-01T21:52:43.505Z,8.48
2023-05-01T21:55:16.130Z,8.57
2023-05-01T21:57:42.801Z,8.45
2023-05-01T22:00:09.976Z,8.51
2023-05-01T22:02:42.002Z,8.52
2023-05-01T22:05:09.705Z,8.47
2023-05-01T22:07:40.634Z,8.49
2023-05-01T22:10:12.417Z,8.42
2023-05-01T22:12:40.103Z,8.54
2023-05-01T22:15:08.322Z,8.47
2023-05-01T22:17:35.545Z,8.51
2023-05-01T22:20:03.430Z,8.50
2023-05-01T22:22:30.071Z,8.53
2023-05-01T22:24:56.727Z,8.56
2023-05-01T22:27:23.387Z,8.44
2023-05-01T22:29:49.997Z,8.43
2023-05-01T22:32:16.726Z,8.48
2023-05-01T22:34:43.402Z,8.50
2023-05-01T22:37:10.350Z,8.44
2023-05-01T22:39:36.922Z,8.40
2023-05-01T22:42:03.989Z,8.25
2023-05-01T22:44:31.303Z,8.29
2023-05-01T22:46:59.496Z,8.25
2023-05-01T22:49:28.584Z,8.19
2023-05-01T22:51:55.827Z,7.98
2023-05-01T22:54:22.548Z,7.94
2023-05-01T22:56:52.010Z,7.91
2023-05-01T22:59:19.247Z,7.90
2023-05-01T23:01:46.457Z,7.83
2023-05-01T23:04:13.956Z,7.84
2023-05-01T23:06:41.107Z,7.76
2023-05-01T23:09:08.456Z,7.68
2023-05-01T23:11:35.340Z,7.69
2023-05-01T23:14:02.104Z,7.73
2023-05-01T23:16:36.546Z,7.58
2023-05-01T23:19:03.691Z,7.48
2023-05-01T23:21:31.141Z,7.49
2023-05-01T23:23:57.891Z,7.55
2023-05-01T23:26:26.838Z,7.63
2023-05-01T23:28:53.796Z,7.67
2023-05-01T23:31:25.776Z,7.73
2023-05-01T23:33:53.341Z,7.78
2023-05-01T23:36:20.170Z,7.86
2023-05-01T23:38:47.581Z,7.76
2023-05-01T23:41:15.032Z,7.64
2023-05-01T23:43:42.008Z,7.60
2023-05-01T23:46:09.176Z,7.65
2023-05-01T23:48:36.511Z,7.71
2023-05-01T23:51:03.515Z,7.73
2023-05-01T23:53:30.644Z,7.73
2023-05-01T23:55:57.774Z,7.74
2023-05-01T23:58:24.589Z,7.78
